Time;durP1;ratioP1;P1;durP2;ratioP2;P2;SDS_P1;SDS_P2;PMS_P1;PMS_P2;Temp;Humidity;BMP_temperature;BMP_pressure;BME280_temperature;BME280_humidity;BME280_pressure;Samples;Min_cycle;Max_cycle;Signal;HPM_P1;HPM_P2
2022/09/12 00:00:48;;;;;;;10.15;9.13;;;14.10;99.90;;;;;;5097178;28;20100;-59
2022/09/12 00:03:15;;;;;;;10.25;9.35;;;14.00;99.90;;;;;;5096625;28;20071;-59
2022/09/12 00:05:46;;;;;;;11.20;10.15;;;14.00;99.90;;;;;;5062099;28;20356;-59
2022/09/12 00:08:13;;;;;;;11.37;9.80;;;13.90;99.90;;;;;;5098315;28;20078;-59
2022/09/12 00:10:41;;;;;;;10.10;9.20;;;13.90;99.90;;;;;;5099370;28;20059;-58
2022/09/12 00:13:08;;;;;;;11.73;10.32;;;13.80;99.90;;;;;;5098907;28;20067;-59
2022/09/12 00:15:39;;;;;;;11.18;9.75;;;13.80;99.90;;;;;;5096045;28;20058;-58
2022/09/12 00:18:07;;;;;;;11.17;10.23;;;13.80;99.90;;;;;;5092517;28;20047;-51
2022/09/12 00:20:33;;;;;;;15.68;13.93;;;13.80;99.90;;;;;;5097325;28;20055;-49
2022/09/12 00:22:59;;;;;;;16.60;15.18;;;13.80;99.90;;;;;;5095954;28;20039;-59
2022/09/12 00:25:26;;;;;;;17.65;16.10;;;13.80;99.90;;;;;;5080356;28;20546;-59
2022/09/12 00:27:52;;;;;;;15.75;14.25;;;13.80;99.90;;;;;;5094863;28;20490;-57
2022/09/12 00:30:18;;;;;;;17.58;15.93;;;13.80;99.90;;;;;;5098515;28;20630;-50
2022/09/12 00:32:44;;;;;;;16.15;14.70;;;13.70;99.90;;;;;;5096699;28;20150;-51
2022/09/12 00:35:11;;;;;;;18.45;16.60;;;13.70;99.90;;;;;;5061593;28;20108;-49
2022/09/12 00:37:37;;;;;;;17.27;15.57;;;13.70;99.90;;;;;;5081007;28;20039;-58
2022/09/12 00:40:04;;;;;;;14.40;12.98;;;13.70;99.90;;;;;;5090971;28;20048;-59
2022/09/12 00:42:30;;;;;;;15.65;14.00;;;13.70;99.90;;;;;;5101378;28;20055;-52
2022/09/12 00:44:56;;;;;;;14.82;13.43;;;13.60;99.90;;;;;;5094673;28;20079;-51
2022/09/12 00:47:30;;;;;;;15.73;14.35;;;13.60;99.90;;;;;;5094671;28;20168;-47
2022/09/12 00:50:05;;;;;;;15.05;13.63;;;13.50;99.90;;;;;;5076080;27;20051;-58
2022/09/12 00:52:53;;;;;;;15.13;13.73;;;13.50;99.90;;;;;;5095869;28;20069;-59
2022/09/12 00:55:27;;;;;;;14.20;12.95;;;13.50;99.90;;;;;;5095437;28;20044;-59
2022/09/12 00:58:02;;;;;;;14.23;12.90;;;13.50;99.90;;;;;;5094978;27;20043;-59
2022/09/12 01:00:28;;;;;;;13.77;12.57;;;13.50;99.90;;;;;;5093371;27;20534;-59
2022/09/12 01:03:07;;;;;;;17.13;15.73;;;13.40;99.90;;;;;;5089889;28;20376;-60
2022/09/12 01:05:36;;;;;;;19.75;17.98;;;13.40;99.90;;;;;;5061214;28;20039;-60
2022/09/12 01:08:04;;;;;;;16.05;14.63;;;13.40;99.90;;;;;;5092852;27;20051;-58
2022/09/12 01:10:33;;;;;;;18.23;16.55;;;13.40;99.90;;;;;;5095198;28;20120;-59
2022/09/12 01:12:59;;;;;;;17.55;15.88;;;13.40;99.90;;;;;;5092530;27;20124;-58
2022/09/12 01:15:26;;;;;;;19.63;17.92;;;13.40;99.90;;;;;;5062358;28;20342;-48
2022/09/12 01:18:07;;;;;;;17.25;15.85;;;13.40;99.90;;;;;;5094832;28;20046;-50
2022/09/12 01:21:07;;;;;;;16.83;15.25;;;13.40;99.90;;;;;;5073576;28;20052;-59
2022/09/12 01:23:52;;;;;;;16.50;15.07;;;13.30;99.90;;;;;;5038487;28;20072;-59
2022/09/12 01:26:43;;;;;;;16.38;15.02;;;13.30;99.90;;;;;;5077670;28;20047;-60
2022/09/12 01:29:34;;;;;;;16.58;15.13;;;13.30;99.90;;;;;;5096934;27;20051;-59
2022/09/12 01:32:14;;;;;;;16.70;15.30;;;13.30;99.90;;;;;;5092365;28;20130;-59
2022/09/12 01:34:50;;;;;;;17.73;16.00;;;13.30;99.90;;;;;;5079572;28;20513;-60
2022/09/12 01:37:32;;;;;;;19.67;17.77;;;13.30;99.90;;;;;;5090689;28;20055;-60
2022/09/12 01:40:17;;;;;;;;;;;13.20;99.90;;;;;;5080745;27;20046;-60
2022/09/12 01:42:54;;;;;;;20.25;18.33;;;13.20;99.90;;;;;;5094352;28;20040;-61
2022/09/12 01:45:27;;;;;;;22.30;20.17;;;13.20;99.90;;;;;;5094854;28;20550;-60
2022/09/12 01:47:57;;;;;;;23.52;21.48;;;13.20;99.90;;;;;;5094235;28;20119;-64
2022/09/12 01:50:32;;;;;;;21.48;19.65;;;13.20;99.90;;;;;;5096898;27;20971;-60
2022/09/12 01:53:08;;;;;;;23.75;21.60;;;13.10;99.90;;;;;;5095450;28;20083;-60
2022/09/12 01:55:41;;;;;;;22.00;19.98;;;13.20;99.90;;;;;;5096155;28;20215;-60
2022/09/12 01:58:07;;;;;;;24.88;22.55;;;13.10;99.90;;;;;;5095214;28;20082;-59
2022/09/12 02:00:39;;;;;;;23.85;21.77;;;13.10;99.90;;;;;;5093539;27;20114;-59
2022/09/12 02:03:14;;;;;;;24.45;22.33;;;13.20;99.90;;;;;;5095689;28;20470;-60
2022/09/12 02:06:10;;;;;;;25.63;23.33;;;13.10;99.90;;;;;;5097655;28;20040;-60
2022/09/12 02:08:43;;;;;;;23.80;21.70;;;13.10;99.90;;;;;;5095212;28;20100;-52
2022/09/12 02:11:10;;;;;;;26.60;23.80;;;13.10;99.90;;;;;;5093240;28;20051;-52
2022/09/12 02:13:51;;;;;;;25.25;22.65;;;13.20;99.90;;;;;;5088253;28;20056;-50
2022/09/12 02:16:19;;;;;;;25.00;22.60;;;13.10;99.90;;;;;;5095147;28;20049;-52
2022/09/12 02:18:51;;;;;;;25.40;23.08;;;13.10;99.90;;;;;;5076274;28;20062;-48
2022/09/12 02:21:20;;;;;;;29.38;26.67;;;13.10;99.90;;;;;;5092227;27;20047;-51
2022/09/12 02:23:51;;;;;;;29.70;26.88;;;13.10;99.90;;;;;;5095549;28;20494;-51
2022/09/12 02:26:22;;;;;;;28.30;25.40;;;13.10;99.90;;;;;;5095224;28;20054;-54
2022/09/12 02:28:50;;;;;;;25.20;22.85;;;13.10;99.90;;;;;;5097504;28;20104;-50
2022/09/12 02:31:26;;;;;;;29.00;26.20;;;13.00;99.90;;;;;;5073142;28;20128;-48
2022/09/12 02:34:21;;;;;;;30.35;27.55;;;13.00;99.90;;;;;;5074176;28;20043;-50
2022/09/12 02:37:34;;;;;;;30.05;27.05;;;13.00;99.90;;;;;;5095451;28;20472;-60
2022/09/12 02:40:01;;;;;;;27.17;24.38;;;13.00;99.90;;;;;;5075718;28;20055;-60
2022/09/12 02:42:27;;;;;;;33.28;29.98;;;12.90;99.90;;;;;;5093437;27;20128;-60
2022/09/12 02:44:55;;;;;;;34.03;30.60;;;12.90;99.90;;;;;;5079866;28;20043;-60
2022/09/12 02:47:44;;;;;;;32.30;29.20;;;12.90;99.90;;;;;;5058097;28;20036;-60
2022/09/12 02:50:11;;;;;;;31.75;28.35;;;12.90;99.90;;;;;;5095416;28;20050;-60
2022/09/12 02:52:38;;;;;;;31.73;28.70;;;12.90;99.90;;;;;;5080272;28;20605;-61
2022/09/12 02:55:05;;;;;;;31.30;28.20;;;12.90;99.90;;;;;;5077335;28;20036;-60
2022/09/12 02:57:32;;;;;;;31.58;28.58;;;12.90;99.90;;;;;;5096293;28;20040;-60
2022/09/12 03:00:00;;;;;;;31.48;28.35;;;12.90;99.90;;;;;;5095873;28;20549;-59
2022/09/12 03:02:43;;;;;;;32.17;28.88;;;12.90;99.90;;;;;;5093233;28;20036;-60
2022/09/12 03:05:28;;;;;;;34.08;30.75;;;12.90;99.90;;;;;;5099311;28;20043;-53
2022/09/12 03:08:00;;;;;;;35.40;31.80;;;12.80;99.90;;;;;;5079526;28;20047;-49
2022/09/12 03:10:54;;;;;;;34.58;31.00;;;12.90;99.90;;;;;;5100971;27;20537;-51
2022/09/12 03:13:23;;;;;;;34.38;30.88;;;12.80;99.90;;;;;;5099458;28;20521;-52
2022/09/12 03:16:23;;;;;;;32.95;29.70;;;12.80;99.90;;;;;;5099604;28;20127;-51
2022/09/12 03:18:59;;;;;;;35.65;32.05;;;12.80;99.90;;;;;;5094625;28;20042;-52
2022/09/12 03:21:59;;;;;;;39.58;34.35;;;12.80;99.90;;;;;;5078234;28;20110;-61
2022/09/12 03:24:36;;;;;;;38.65;34.67;;;12.80;99.90;;;;;;5096473;28;20047;-60
2022/09/12 03:27:30;;;;;;;36.28;32.78;;;12.80;99.90;;;;;;5096510;28;20071;-60
2022/09/12 03:29:57;;;;;;;36.30;32.60;;;12.80;99.90;;;;;;5098288;28;20044;-60
2022/09/12 03:32:49;;;;;;;34.33;30.77;;;12.70;99.90;;;;;;5095019;28;20083;-59
2022/09/12 03:35:18;;;;;;;35.70;32.00;;;12.80;99.90;;;;;;5077135;28;20500;-60
2022/09/12 03:37:45;;;;;;;37.90;33.90;;;12.80;99.90;;;;;;5076166;28;20122;-60
2022/09/12 03:40:12;;;;;;;35.80;32.17;;;12.70;99.90;;;;;;5078485;28;20039;-59
2022/09/12 03:42:38;;;;;;;36.22;32.50;;;12.70;99.90;;;;;;5061572;28;20078;-59
2022/09/12 03:45:05;;;;;;;34.30;30.77;;;12.70;99.90;;;;;;5098144;28;20196;-59
2022/09/12 03:47:31;;;;;;;36.95;33.25;;;12.70;99.90;;;;;;5098657;27;20086;-59
2022/09/12 03:49:57;;;;;;;37.35;33.58;;;12.60;99.90;;;;;;5076255;28;20130;-59
2022/09/12 03:52:23;;;;;;;36.97;33.13;;;12.70;99.90;;;;;;5094266;27;20047;-51
2022/09/12 03:54:50;;;;;;;35.10;31.55;;;12.70;99.90;;;;;;5080845;28;20093;-48
2022/09/12 03:57:16;;;;;;;38.25;34.10;;;12.70;99.90;;;;;;5079745;27;20673;-53
2022/09/12 03:59:43;;;;;;;38.03;34.00;;;12.60;99.90;;;;;;5096016;27;20100;-51
2022/09/12 04:02:12;;;;;;;40.40;35.78;;;12.60;99.90;;;;;;5095714;28;20043;-51
2022/09/12 04:04:42;;;;;;;41.00;36.63;;;12.60;99.90;;;;;;5078988;28;20123;-50
2022/09/12 04:07:09;;;;;;;39.47;35.08;;;12.60;99.90;;;;;;5098261;28;20810;-49
2022/09/12 04:09:35;;;;;;;44.90;36.17;;;12.60;99.90;;;;;;5107232;27;20131;-51
2022/09/12 04:12:02;;;;;;;37.10;33.05;;;12.60;99.90;;;;;;5096585;28;20059;-60
2022/09/12 04:14:28;;;;;;;37.92;34.03;;;12.60;99.90;;;;;;5095360;28;20044;-61
2022/09/12 04:16:54;;;;;;;39.22;34.95;;;12.60;99.90;;;;;;5099747;27;20039;-60
2022/09/12 04:19:20;;;;;;;40.50;36.17;;;12.60;99.90;;;;;;5114332;27;20055;-60
2022/09/12 04:21:46;;;;;;;42.50;36.00;;;12.60;99.90;;;;;;5099221;28;20502;-51
2022/09/12 04:24:12;;;;;;;37.65;33.47;;;12.50;99.90;;;;;;5093460;28;20046;-49
2022/09/12 04:26:38;;;;;;;42.63;36.60;;;12.60;99.90;;;;;;5081206;28;20043;-51
2022/09/12 04:29:04;;;;;;;39.75;35.55;;;12.50;99.90;;;;;;5093372;27;20047;-51
2022/09/12 04:31:30;;;;;;;39.13;34.92;;;12.50;99.90;;;;;;5082276;28;20051;-61
2022/09/12 04:33:59;;;;;;;40.78;36.05;;;12.50;99.90;;;;;;5098292;27;20051;-60
2022/09/12 04:36:27;;;;;;;43.22;37.20;;;12.50;99.90;;;;;;5093322;28;20123;-49
2022/09/12 04:38:54;;;;;;;42.95;37.78;;;12.50;99.90;;;;;;5099072;28;20065;-50
2022/09/12 04:41:34;;;;;;;44.67;36.50;;;12.40;99.90;;;;;;5095610;27;20096;-60
2022/09/12 04:44:12;;;;;;;40.58;36.10;;;12.50;99.90;;;;;;5096545;28;20469;-60
2022/09/12 04:46:44;;;;;;;39.80;35.47;;;12.40;99.90;;;;;;5097282;28;20054;-61
2022/09/12 04:49:11;;;;;;;43.38;38.47;;;12.40;99.90;;;;;;5095798;28;20051;-60
2022/09/12 04:51:39;;;;;;;46.28;38.40;;;12.40;99.90;;;;;;5079315;28;20057;-61
2022/09/12 04:54:15;;;;;;;45.80;38.45;;;12.40;99.90;;;;;;5062013;28;20151;-61
2022/09/12 04:56:44;;;;;;;44.28;36.53;;;12.40;99.90;;;;;;5073110;28;20483;-50
2022/09/12 04:59:13;;;;;;;47.95;39.40;;;12.40;99.90;;;;;;5091916;28;20067;-49
2022/09/12 05:01:40;;;;;;;47.22;39.30;;;12.40;99.90;;;;;;5095716;28;20886;-60
2022/09/12 05:04:06;;;;;;;44.50;39.42;;;12.40;99.90;;;;;;5091797;28;20047;-50
2022/09/12 05:06:35;;;;;;;47.08;38.47;;;12.50;99.90;;;;;;5075062;28;20044;-49
2022/09/12 05:09:02;;;;;;;43.05;38.28;;;12.50;99.90;;;;;;5097227;28;20384;-53
2022/09/12 05:11:32;;;;;;;43.05;37.28;;;12.60;99.90;;;;;;5097899;28;20126;-49
2022/09/12 05:13:58;;;;;;;49.10;39.15;;;12.60;99.90;;;;;;5097293;27;20565;-49
2022/09/12 05:16:27;;;;;;;47.20;39.55;;;12.70;99.90;;;;;;5093945;28;20499;-53
2022/09/12 05:18:54;;;;;;;50.10;40.70;;;12.70;99.90;;;;;;5096681;28;20453;-52
2022/09/12 05:21:24;;;;;;;48.55;40.83;;;12.80;99.90;;;;;;5075832;28;20051;-52
2022/09/12 05:23:55;;;;;;;58.08;45.15;;;12.90;99.90;;;;;;5078461;28;20189;-61
2022/09/12 05:26:22;;;;;;;64.03;48.40;;;13.00;99.90;;;;;;5071123;28;20057;-61
2022/09/12 05:28:50;;;;;;;64.47;48.72;;;13.20;99.90;;;;;;5093380;27;20091;-61
2022/09/12 05:31:27;;;;;;;62.35;48.30;;;13.30;99.90;;;;;;5097441;28;20578;-61
2022/09/12 05:33:54;;;;;;;67.18;47.58;;;13.40;99.90;;;;;;5080381;28;20070;-61
2022/09/12 05:36:23;;;;;;;63.13;47.35;;;13.50;99.90;;;;;;5098575;28;20063;-60
2022/09/12 05:38:49;;;;;;;56.30;45.85;;;13.60;99.90;;;;;;5112006;27;20047;-59
2022/09/12 05:41:18;;;;;;;63.17;47.95;;;13.70;99.90;;;;;;5113285;27;20142;-60
2022/09/12 05:43:45;;;;;;;58.10;45.47;;;13.80;99.90;;;;;;5097495;28;20059;-60
2022/09/12 05:46:17;;;;;;;60.85;48.50;;;13.90;99.90;;;;;;5062676;28;23012;-60
2022/09/12 05:48:44;;;;;;;;;;;14.00;99.90;;;;;;5097448;28;20039;-60
2022/09/12 05:51:18;;;;;;;53.25;44.15;;;14.10;99.90;;;;;;5093545;28;20264;-51
2022/09/12 05:53:45;;;;;;;55.63;43.30;;;14.20;99.90;;;;;;5093824;28;20047;-49
2022/09/12 05:56:17;;;;;;;47.85;40.85;;;14.30;99.90;;;;;;5092851;28;20036;-49
2022/09/12 05:58:46;;;;;;;54.70;43.88;;;14.30;99.90;;;;;;5095413;28;20567;-51
2022/09/12 06:01:14;;;;;;;46.85;41.53;;;14.40;99.90;;;;;;5094260;28;20116;-47
2022/09/12 06:03:46;;;;;;;50.30;40.78;;;14.40;99.90;;;;;;5079140;28;20047;-52
2022/09/12 06:11:28;;;;;;;44.13;38.72;;;14.50;99.90;;;;;;5092857;28;20042;-60
2022/09/12 06:13:57;;;;;;;45.47;38.70;;;14.50;99.90;;;;;;5096244;28;20113;-60
2022/09/12 06:16:31;;;;;;;61.13;47.60;;;14.50;99.90;;;;;;5074182;28;20043;-61
2022/09/12 06:19:01;;;;;;;54.22;48.25;;;14.70;99.90;;;;;;5077288;28;20290;-61
2022/09/12 06:21:28;;;;;;;44.10;39.38;;;14.70;99.90;;;;;;5079573;28;20040;-60
2022/09/12 06:23:54;;;;;;;43.03;38.35;;;14.70;99.90;;;;;;5093737;28;20387;-61
2022/09/12 06:26:22;;;;;;;45.53;38.55;;;14.80;99.90;;;;;;5096863;28;20051;-48
2022/09/12 06:28:49;;;;;;;44.13;37.47;;;14.90;99.90;;;;;;5095537;28;20043;-46
2022/09/12 06:31:19;;;;;;;45.35;38.63;;;14.90;99.90;;;;;;5095079;28;20126;-45
2022/09/12 06:33:48;;;;;;;43.85;39.17;;;14.90;99.90;;;;;;5078602;28;20466;-60
2022/09/12 06:36:20;;;;;;;42.42;37.95;;;15.00;99.90;;;;;;5095861;28;20039;-60
2022/09/12 06:38:47;;;;;;;;;;;15.00;99.90;;;;;;5094946;28;20109;-63
2022/09/12 06:41:14;;;;;;;74.57;66.25;;;15.00;99.90;;;;;;5074534;28;20014;-45
2022/09/12 06:43:41;;;;;;;56.92;50.83;;;15.10;99.90;;;;;;5093943;28;20047;-48
2022/09/12 06:46:08;;;;;;;62.50;56.00;;;15.20;99.90;;;;;;5091579;28;20043;-45
2022/09/12 06:48:35;;;;;;;51.00;43.70;;;15.20;99.90;;;;;;5080605;28;20051;-47
2022/09/12 06:51:08;;;;;;;48.25;41.85;;;15.30;99.90;;;;;;5098459;28;20237;-46
2022/09/12 06:53:35;;;;;;;55.20;48.70;;;15.40;99.90;;;;;;5095695;28;20051;-45
2022/09/12 06:56:08;;;;;;;46.05;39.50;;;15.40;99.90;;;;;;5093241;28;20099;-49
2022/09/12 06:58:35;;;;;;;46.42;39.60;;;15.50;99.90;;;;;;5079580;28;20044;-44
2022/09/12 07:01:02;;;;;;;52.95;45.08;;;15.60;99.90;;;;;;5076137;28;20498;-44
2022/09/12 07:03:28;;;;;;;50.45;43.38;;;15.60;99.90;;;;;;5093711;28;20118;-49
2022/09/12 07:05:55;;;;;;;66.95;59.75;;;15.60;99.90;;;;;;5076354;28;20067;-47
2022/09/12 07:08:21;;;;;;;52.13;45.00;;;15.60;99.90;;;;;;5097595;28;20133;-47
2022/09/12 07:10:47;;;;;;;47.78;42.40;;;15.70;99.90;;;;;;5093627;28;20052;-46
2022/09/12 07:13:14;;;;;;;48.08;39.88;;;15.80;99.90;;;;;;5073467;28;20048;-47
2022/09/12 07:15:40;;;;;;;42.08;37.47;;;15.80;99.90;;;;;;5089945;28;20047;-48
2022/09/12 07:18:09;;;;;;;43.28;36.00;;;15.90;99.90;;;;;;5074141;28;20322;-50
2022/09/12 07:20:38;;;;;;;41.25;36.28;;;15.80;99.90;;;;;;5093264;28;20267;-51
2022/09/12 07:23:04;;;;;;;43.00;36.85;;;15.80;99.90;;;;;;5096728;28;20506;-49
2022/09/12 07:25:30;;;;;;;45.95;37.22;;;15.80;99.90;;;;;;5095728;28;20043;-53
2022/09/12 07:27:56;;;;;;;42.83;36.28;;;15.80;99.90;;;;;;5094519;28;20189;-61
2022/09/12 07:30:22;;;;;;;42.92;36.50;;;15.80;99.90;;;;;;5094063;28;20123;-48
2022/09/12 07:32:54;;;;;;;43.70;36.75;;;15.80;99.90;;;;;;5059515;28;20051;-51
2022/09/12 07:35:21;;;;;;;42.85;36.58;;;15.90;99.90;;;;;;5098042;28;20043;-50
2022/09/12 07:37:47;;;;;;;42.47;35.03;;;16.00;99.90;;;;;;5077830;28;20047;-52
2022/09/12 07:40:13;;;;;;;39.00;34.88;;;16.00;99.90;;;;;;5095095;27;20510;-49
2022/09/12 07:42:39;;;;;;;39.45;34.25;;;16.10;99.90;;;;;;5097458;28;20109;-61
2022/09/12 07:45:06;;;;;;;39.90;34.08;;;16.30;99.90;;;;;;5077393;28;20124;-49
2022/09/12 07:47:32;;;;;;;39.95;33.58;;;16.40;99.90;;;;;;5093793;28;20083;-50
2022/09/12 07:49:58;;;;;;;36.88;32.72;;;16.60;99.90;;;;;;5095622;28;20039;-60
2022/09/12 07:52:24;;;;;;;38.45;33.63;;;16.90;99.90;;;;;;5098346;28;20036;-60
2022/09/12 07:54:51;;;;;;;36.40;32.45;;;17.20;99.90;;;;;;5099029;28;20043;-46
2022/09/12 07:57:17;;;;;;;34.88;31.00;;;17.40;99.90;;;;;;5094839;28;20054;-50
2022/09/12 07:59:43;;;;;;;36.72;32.83;;;17.50;99.90;;;;;;5096721;28;20044;-48
2022/09/12 08:02:13;;;;;;;35.58;30.38;;;17.50;99.90;;;;;;5076415;28;20474;-61
2022/09/12 08:04:40;;;;;;;34.17;30.45;;;17.40;99.90;;;;;;5097567;27;20051;-61
2022/09/12 08:07:08;;;;;;;32.90;29.40;;;17.30;99.90;;;;;;5075059;28;20387;-61
2022/09/12 08:09:34;;;;;;;35.30;31.55;;;17.30;99.90;;;;;;5094812;28;20352;-61
2022/09/12 08:12:01;;;;;;;33.08;29.50;;;17.30;99.90;;;;;;5064929;28;20615;-61
2022/09/12 08:14:28;;;;;;;31.33;27.05;;;17.20;99.90;;;;;;5081925;28;20473;-61
2022/09/12 08:16:54;;;;;;;34.00;30.30;;;17.20;99.90;;;;;;5081857;28;20251;-61
2022/09/12 08:19:21;;;;;;;34.42;29.83;;;17.20;99.90;;;;;;5099718;28;20330;-61
2022/09/12 08:21:47;;;;;;;34.92;31.17;;;17.20;99.90;;;;;;5082487;28;20417;-60
2022/09/12 08:24:14;;;;;;;34.50;29.83;;;17.20;99.90;;;;;;5101293;27;20558;-62
2022/09/12 08:26:40;;;;;;;34.65;31.15;;;17.30;99.90;;;;;;5066295;28;20050;-61
2022/09/12 08:29:06;;;;;;;34.78;29.25;;;17.40;99.90;;;;;;5097329;27;20040;-60
2022/09/12 08:31:35;;;;;;;33.13;29.48;;;17.50;99.90;;;;;;5101276;28;20035;-51
2022/09/12 08:34:04;;;;;;;32.85;29.35;;;17.60;99.90;;;;;;5098676;28;20621;-60
2022/09/12 08:36:31;;;;;;;32.65;29.13;;;17.80;99.90;;;;;;5101524;28;20039;-61
2022/09/12 08:39:06;;;;;;;35.00;31.15;;;17.90;99.90;;;;;;5096452;28;20130;-61
2022/09/12 08:41:39;;;;;;;37.63;31.10;;;18.00;99.90;;;;;;5097635;28;20374;-50
2022/09/12 08:44:14;;;;;;;32.10;28.67;;;18.20;99.90;;;;;;5094682;28;20047;-50
2022/09/12 08:47:05;;;;;;;32.45;28.75;;;18.40;99.90;;;;;;5097813;28;20078;-51
2022/09/12 08:49:34;;;;;;;33.97;30.40;;;18.60;99.90;;;;;;5096645;28;20044;-49
2022/09/12 08:52:10;;;;;;;34.25;30.58;;;18.80;99.90;;;;;;5112483;27;20385;-61
2022/09/12 08:54:38;;;;;;;35.10;30.55;;;19.00;99.90;;;;;;5077944;28;20384;-61
2022/09/12 08:57:08;;;;;;;38.10;31.10;;;19.40;99.90;;;;;;5097348;28;20047;-61
2022/09/12 08:59:39;;;;;;;32.95;29.55;;;20.00;99.90;;;;;;5096628;28;20071;-62
2022/09/12 09:02:33;;;;;;;33.47;29.25;;;20.30;99.90;;;;;;5095288;28;20044;-61
2022/09/12 09:05:22;;;;;;;31.17;27.90;;;20.80;99.90;;;;;;5093401;28;20569;-59
2022/09/12 09:08:26;;;;;;;38.08;33.95;;;21.40;99.90;;;;;;5085122;28;20565;-60
2022/09/12 09:11:07;;;;;;;34.78;30.73;;;21.80;99.90;;;;;;5093063;28;20117;-61
2022/09/12 09:16:33;;;;;;;35.42;31.73;;;22.00;99.90;;;;;;5092173;28;20506;-50
2022/09/12 09:19:04;;;;;;;40.05;35.72;;;22.00;99.90;;;;;;5090921;27;20044;-51
2022/09/12 09:21:41;;;;;;;36.63;32.38;;;21.80;99.90;;;;;;5108650;27;20462;-48
2022/09/12 09:24:13;;;;;;;37.20;32.05;;;21.80;99.90;;;;;;5071110;28;20043;-48
2022/09/12 09:26:46;;;;;;;;;;;21.50;99.90;;;;;;5095390;28;20050;-52
2022/09/12 09:29:18;;;;;;;35.67;30.60;;;21.50;99.90;;;;;;5095614;27;19926;-51
2022/09/12 09:31:51;;;;;;;38.38;34.30;;;21.50;99.90;;;;;;5072526;28;20587;-50
2022/09/12 09:34:24;;;;;;;40.10;35.50;;;22.00;99.90;;;;;;5093309;28;20143;-51
2022/09/12 09:36:54;;;;;;;45.28;40.28;;;22.40;99.90;;;;;;5088729;27;20035;-48
2022/09/12 09:39:35;;;;;;;41.42;33.85;;;23.00;99.90;;;;;;5058453;28;21550;-46
2022/09/12 09:42:26;;;;;;;40.63;36.17;;;23.40;99.90;;;;;;5093978;28;20046;-58
2022/09/12 09:44:56;;;;;;;38.05;31.90;;;23.90;99.90;;;;;;5093950;28;20430;-58
2022/09/12 09:47:22;;;;;;;36.22;32.35;;;24.00;99.90;;;;;;5091762;28;20078;-49
2022/09/12 09:49:48;;;;;;;37.83;33.80;;;24.30;99.90;;;;;;5091090;28;20048;-47
2022/09/12 09:52:19;;;;;;;34.28;30.70;;;24.70;99.90;;;;;;5093949;27;20577;-48
2022/09/12 09:54:58;;;;;;;36.10;32.43;;;25.10;99.90;;;;;;5092627;28;20331;-49
2022/09/12 09:57:33;;;;;;;35.58;31.70;;;25.40;99.90;;;;;;5093517;28;20079;-45
2022/09/12 10:00:26;;;;;;;34.65;31.15;;;25.70;99.90;;;;;;5089276;28;20036;-61
2022/09/12 10:03:03;;;;;;;33.25;29.70;;;26.30;99.90;;;;;;5075974;28;20052;-64
2022/09/12 10:05:32;;;;;;;31.88;27.77;;;26.60;99.90;;;;;;5092683;28;20425;-61
2022/09/12 10:07:58;;;;;;;35.55;31.92;;;26.80;99.90;;;;;;5091357;28;20054;-61
2022/09/12 10:10:24;;;;;;;29.45;26.55;;;26.20;99.90;;;;;;5090520;28;20478;-61
2022/09/12 10:13:07;;;;;;;29.40;26.33;;;26.40;99.90;;;;;;5078285;28;20089;-46
2022/09/12 10:15:34;;;;;;;31.00;27.63;;;26.30;98.40;;;;;;5087814;28;20042;-46
2022/09/12 10:18:01;;;;;;;33.20;29.73;;;26.20;99.90;;;;;;5092341;28;20806;-45
2022/09/12 10:20:41;;;;;;;29.55;26.50;;;26.20;99.90;;;;;;5075883;28;20047;-46
2022/09/12 10:23:36;;;;;;;36.33;32.78;;;26.30;99.90;;;;;;5094491;28;20158;-46
2022/09/12 10:26:08;;;;;;;28.92;25.98;;;27.30;99.50;;;;;;5090479;27;20047;-45
2022/09/12 10:28:40;;;;;;;29.05;26.15;;;28.20;97.70;;;;;;5094113;28;20051;-45
2022/09/12 10:31:09;;;;;;;28.38;25.52;;;28.00;93.00;;;;;;5072584;28;20058;-46
2022/09/12 10:33:51;;;;;;;29.83;26.88;;;28.00;95.00;;;;;;5092804;28;20263;-48
2022/09/12 10:36:19;;;;;;;27.13;23.83;;;28.70;92.80;;;;;;5092747;28;20118;-48
2022/09/12 10:39:04;;;;;;;25.38;22.85;;;28.70;92.20;;;;;;5086924;28;20494;-49
2022/09/12 10:41:39;;;;;;;28.27;25.60;;;28.90;92.50;;;;;;5088124;28;20131;-59
2022/09/12 10:44:16;;;;;;;38.00;34.25;;;29.00;90.30;;;;;;5070938;28;20060;-59
2022/09/12 10:46:42;;;;;;;24.42;21.98;;;29.30;92.00;;;;;;5087346;27;20676;-59
2022/09/12 10:49:22;;;;;;;27.02;20.67;;;29.00;86.50;;;;;;5090076;28;20058;-59
2022/09/12 10:51:48;;;;;;;43.38;39.35;;;29.20;84.40;;;;;;5072340;28;20421;-59
2022/09/12 10:54:18;;;;;;;25.73;23.33;;;29.00;87.20;;;;;;5089478;28;20048;-59
2022/09/12 10:56:52;;;;;;;24.52;22.00;;;28.70;77.90;;;;;;5090992;28;20056;-59
2022/09/12 10:59:37;;;;;;;23.30;21.02;;;28.60;78.70;;;;;;5087780;28;20047;-59
2022/09/12 11:02:37;;;;;;;23.75;21.55;;;28.80;85.50;;;;;;5094383;28;20104;-59
2022/09/12 11:05:12;;;;;;;23.42;21.10;;;28.70;83.50;;;;;;5070779;28;20051;-58
2022/09/12 11:07:49;;;;;;;23.48;21.23;;;28.10;85.70;;;;;;5087193;28;21009;-59
2022/09/12 11:10:41;;;;;;;21.40;19.30;;;28.20;86.80;;;;;;5086798;28;20048;-58
2022/09/12 11:13:36;;;;;;;22.58;20.27;;;28.80;83.30;;;;;;5087728;28;20055;-60
2022/09/12 11:16:25;;;;;;;21.52;19.30;;;29.60;75.50;;;;;;5094475;28;20046;-59
2022/09/12 11:19:28;;;;;;;24.52;22.02;;;30.30;73.30;;;;;;5060950;28;20051;-49
2022/09/12 11:21:54;;;;;;;23.02;20.60;;;29.80;67.50;;;;;;5089605;28;20052;-51
2022/09/12 11:24:38;;;;;;;20.42;18.38;;;29.70;70.90;;;;;;5090476;28;20074;-51
2022/09/12 11:27:34;;;;;;;21.20;19.00;;;29.90;67.60;;;;;;5095166;28;20044;-58
2022/09/12 11:30:05;;;;;;;22.58;20.45;;;29.70;65.10;;;;;;5094792;28;20043;-50
2022/09/12 11:33:17;;;;;;;21.02;18.45;;;29.70;70.00;;;;;;5096838;28;20067;-58
2022/09/12 11:35:50;;;;;;;19.63;17.73;;;29.80;66.80;;;;;;5091297;28;20051;-58
2022/09/12 11:38:27;;;;;;;18.02;15.65;;;30.70;63.90;;;;;;5099421;28;20493;-59
2022/09/12 11:41:08;;;;;;;16.30;14.80;;;30.60;64.60;;;;;;5095656;28;20047;-58
2022/09/12 11:43:40;;;;;;;20.83;18.83;;;29.50;63.50;;;;;;5095739;27;20250;-60
2022/09/12 11:46:23;;;;;;;19.42;17.52;;;28.50;70.30;;;;;;5092480;28;20106;-50
2022/09/12 11:49:08;;;;;;;20.95;18.77;;;28.60;71.40;;;;;;5091954;28;20170;-59
2022/09/12 11:51:59;;;;;;;28.17;25.63;;;28.30;76.10;;;;;;5095701;28;21312;-59
2022/09/12 11:54:47;;;;;;;;;;;28.30;77.30;;;;;;5092395;28;20049;-60
2022/09/12 11:57:53;;;;;;;20.77;18.63;;;27.90;83.10;;;;;;5072749;28;20347;-60
2022/09/12 12:00:25;;;;;;;19.05;17.13;;;29.00;70.80;;;;;;5084121;27;20044;-60
2022/09/12 12:03:00;;;;;;;22.73;20.27;;;29.70;69.80;;;;;;5092293;28;20135;-64
2022/09/12 12:05:56;;;;;;;21.45;19.25;;;29.90;67.00;;;;;;5092867;28;20126;-58
2022/09/12 12:08:24;;;;;;;22.70;20.45;;;30.10;63.70;;;;;;5090626;27;20043;-56
2022/09/12 12:10:57;;;;;;;20.13;18.23;;;30.30;64.70;;;;;;5089976;27;20039;-57
2022/09/12 12:13:32;;;;;;;25.92;23.38;;;30.50;62.20;;;;;;5086945;28;20044;-58
2022/09/12 12:16:11;;;;;;;17.23;14.35;;;30.00;63.30;;;;;;5090668;28;20121;-59
2022/09/12 12:18:38;;;;;;;17.52;15.73;;;30.00;63.70;;;;;;5075250;28;20039;-56
2022/09/12 12:21:26;;;;;;;17.48;14.10;;;29.90;62.70;;;;;;5091570;27;20035;-58
2022/09/12 12:24:08;;;;;;;17.65;15.95;;;30.20;60.40;;;;;;5093079;28;20046;-57
2022/09/12 12:26:40;;;;;;;18.02;13.73;;;30.10;61.30;;;;;;5090140;28;20130;-57
2022/09/12 12:29:32;;;;;;;18.48;15.20;;;30.40;59.20;;;;;;5090066;28;20108;-55
2022/09/12 12:32:00;;;;;;;19.15;17.38;;;30.40;59.80;;;;;;5091992;28;20152;-55
2022/09/12 12:34:28;;;;;;;15.93;14.43;;;30.80;57.80;;;;;;5090883;28;20152;-55
2022/09/12 12:36:54;;;;;;;16.25;14.68;;;30.70;58.50;;;;;;5090228;28;20498;-57
2022/09/12 12:39:32;;;;;;;15.63;14.10;;;30.30;58.10;;;;;;5076393;28;20055;-57
2022/09/12 12:41:59;;;;;;;16.77;15.23;;;30.30;57.70;;;;;;5088797;28;20554;-49
2022/09/12 12:44:47;;;;;;;14.15;12.73;;;30.30;58.70;;;;;;5074340;28;20132;-45
2022/09/12 12:47:20;;;;;;;11.55;10.40;;;30.50;58.90;;;;;;5075596;28;20140;-48
2022/09/12 12:50:15;;;;;;;12.73;11.48;;;30.30;59.60;;;;;;5093662;28;20513;-48
2022/09/12 12:52:57;;;;;;;12.90;11.63;;;30.30;56.70;;;;;;5089968;27;20051;-47
2022/09/12 12:55:42;;;;;;;11.80;10.60;;;30.30;56.60;;;;;;5091999;28;20410;-48
2022/09/12 12:58:27;;;;;;;9.40;8.25;;;30.80;57.80;;;;;;5091319;28;20495;-56
2022/09/12 13:01:08;;;;;;;10.77;8.07;;;30.60;52.40;;;;;;5091644;28;20512;-61
2022/09/12 13:03:35;;;;;;;10.60;6.47;;;31.00;52.80;;;;;;5089467;28;20141;-56
2022/09/12 13:06:06;;;;;;;8.60;7.70;;;30.70;52.40;;;;;;5092532;28;20050;-60